Ingolstadt Manching Airport


Codes: ETSI/IGS
Name: Ingolstadt Manching Airport
City: Manching
Country: Germany
Elevation: 1202 ft.
Wikipedia:

Photos at Ingolstadt Manching Airport


   Photos courtesy of SpottingLog. You can add your own sightings and photos by signing up for a free trial today.



No photos found.

Weather at Ingolstadt Manching Airport


Time (UTC)DescriptionTempratureWindCloud coverageVisibilityPressureHumidity
16-Jun-2024 03:00Overcast Clouds14°C7 mph, SW100%10000m1013hPa80%
16-Jun-2024 06:00Overcast Clouds13°C4 mph, SW99%10000m1013hPa83%
16-Jun-2024 09:00Overcast Clouds16°C4 mph, S100%10000m1013hPa73%
16-Jun-2024 12:00Overcast Clouds19°C7 mph, S88%10000m1012hPa61%
16-Jun-2024 15:00Broken Clouds20°C7 mph, S84%10000m1012hPa60%
16-Jun-2024 18:00Broken Clouds18°C7 mph, SE78%10000m1012hPa79%
16-Jun-2024 21:00Broken Clouds14°C4 mph, S81%10000m1014hPa84%
17-Jun-2024 00:00Broken Clouds13°C2 mph, SW80%10000m1015hPa90%
17-Jun-2024 03:00Light Rain13°C2 mph, NE100%10000m1016hPa92%
17-Jun-2024 06:00Overcast Clouds16°C4 mph, S100%10000m1016hPa85%
17-Jun-2024 09:00Overcast Clouds21°C7 mph, S100%10000m1016hPa70%
17-Jun-2024 12:00Overcast Clouds23°C4 mph, S93%10000m1015hPa60%
17-Jun-2024 15:00Overcast Clouds23°C4 mph, SW93%10000m1015hPa62%
17-Jun-2024 18:00Light Rain19°C2 mph, NW97%10000m1017hPa87%
17-Jun-2024 21:00Light Rain16°C4 mph, W97%10000m1018hPa86%
18-Jun-2024 00:00Broken Clouds14°C2 mph, S76%10000m1017hPa87%
18-Jun-2024 03:00Overcast Clouds13°C4 mph, E87%10000m1017hPa91%
18-Jun-2024 06:00Broken Clouds17°C4 mph, SE78%10000m1017hPa86%
18-Jun-2024 09:00Overcast Clouds22°C4 mph, SE91%10000m1017hPa74%
18-Jun-2024 12:00Overcast Clouds26°C2 mph, SW91%10000m1016hPa61%
18-Jun-2024 15:00Overcast Clouds26°C0 mph, NW99%10000m1015hPa58%
18-Jun-2024 18:00Overcast Clouds24°C2 mph, NW100%10000m1014hPa73%
18-Jun-2024 21:00Overcast Clouds20°C4 mph, NE100%10000m1015hPa82%
19-Jun-2024 00:00Light Rain18°C4 mph, W100%10000m1016hPa93%
19-Jun-2024 03:00Light Rain17°C2 mph, SW99%10000m1017hPa96%
19-Jun-2024 06:00Light Rain19°C4 mph, W98%10000m1019hPa89%
19-Jun-2024 09:00Broken Clouds23°C7 mph, W72%10000m1019hPa73%
19-Jun-2024 12:00Broken Clouds25°C9 mph, NW69%10000m1019hPa60%
19-Jun-2024 15:00Scattered Clouds25°C7 mph, NW46%10000m1020hPa61%
19-Jun-2024 18:00Few Clouds22°C7 mph, N23%10000m1020hPa77%
19-Jun-2024 21:00Clear Sky17°C4 mph, NE1%10000m1022hPa86%
20-Jun-2024 00:00Clear Sky16°C4 mph, E1%10000m1021hPa88%
20-Jun-2024 03:00Clear Sky15°C7 mph, E0%10000m1019hPa92%
20-Jun-2024 06:00Clear Sky19°C11 mph, E0%10000m1018hPa87%
20-Jun-2024 09:00Clear Sky24°C9 mph, E2%10000m1017hPa73%
20-Jun-2024 12:00Clear Sky28°C7 mph, E2%10000m1015hPa62%
20-Jun-2024 15:00Scattered Clouds29°C7 mph, E35%10000m1013hPa64%
20-Jun-2024 18:00Broken Clouds24°C7 mph, E59%10000m1012hPa83%
20-Jun-2024 21:00Overcast Clouds22°C9 mph, NW100%10000m1012hPa82%
21-Jun-2024 00:00Overcast Clouds19°C9 mph, E99%10000m1009hPa82%